Airfield :







YOU CAN JOIN US ON...

 
LOGIN :

Register | Disclaimer

   EN    FR    IT 

 









Legend :    VFR   Marginal VFR   IFR   Intensive IFR   Very Intensive IFR
Visi :
Ceiling :
>= 8 km
>= 3000ft
5 to 8 km
1000 to 3000 ft
1500m to 5 km
500 to 1000 ft
800 to 1500m
200 to 500 ft
< 800m
< 200 ft
Symbols :   Thunderstorms  Fog  Heavy snow  Heavy precipitations  Wind > 20 kt






- Airport Elevation : 285 ft
- IATA code : ALB


KALB - Albany International

CURRENT METAR :
  • 120251Z 30012KT 10SM FEW080 M02/M12 A3039 RMK AO2 PK WND 31028/0154 SNE12 SLP293 P0000 60000 T10221117 51040

EXPIRED METARs :
  • 120151Z 29018G31KT 10SM -SN SCT043 SCT070 BKN080 M01/M09 A3037 RMK AO2 PK WND 30031/0135 SNB36 SLP286 PCPN VRY LGT P0000 T10111089
  • 120051Z 28011G18KT 10SM FEW060 SCT070 SCT080 01/M10 A3030 RMK AO2 SLP264 SCT080 V BKN T00061100

TAF KALB
Valid from the 12 at 01:00 until the 13 at 00:00 UTC


120118Z 1201/1224 28012G20KT P6SM VCSH BKN050
TEMPO 1201/1202 2SM -SHSN BKN025
FM120300 28015G25KT P6SM VCSH BKN040
FM120800 29007KT P6SM SCT040
FM121200 28005KT P6SM SCT100
FM122000 17006KT P6SM SCT100



MET'MAP, your aeronautical weather chart ! - Copyright ORBIFLY December 2007 - Disclaimer

ORBIFLY MET'MAP TEAM :

Programming & Development : Alexandra Zaïnal
Concept & original design : Baudouin d'Aumeries
Assistance for programming : Marc-Olivier Méhu
Technical & hardware support : Manuel Goepfert

Contact : metmap@orbifly.com




SOURCES & CREDITS :

   NOAA